sensor_id;sensor_type;location;lat;lon;timestamp;P1;durP1;ratioP1;P2;durP2;ratioP2
39728;SDS011;25402;42.004;23.088;2022-12-07T00:01:41;12.40;;;7.28;;
39728;SDS011;25402;42.004;23.088;2022-12-07T00:04:11;16.48;;;7.80;;
39728;SDS011;25402;42.004;23.088;2022-12-07T00:06:39;12.35;;;6.97;;
39728;SDS011;25402;42.004;23.088;2022-12-07T00:09:09;19.75;;;7.65;;
39728;SDS011;25402;42.004;23.088;2022-12-07T00:11:40;13.38;;;6.72;;
39728;SDS011;25402;42.004;23.088;2022-12-07T00:14:09;17.67;;;6.90;;
39728;SDS011;25402;42.004;23.088;2022-12-07T00:16:38;14.57;;;7.25;;
39728;SDS011;25402;42.004;23.088;2022-12-07T00:19:07;11.88;;;6.07;;
39728;SDS011;25402;42.004;23.088;2022-12-07T00:21:36;20.92;;;6.60;;
39728;SDS011;25402;42.004;23.088;2022-12-07T00:24:04;13.07;;;6.53;;
39728;SDS011;25402;42.004;23.088;2022-12-07T00:26:32;9.38;;;6.10;;
39728;SDS011;25402;42.004;23.088;2022-12-07T00:29:03;14.18;;;5.97;;
39728;SDS011;25402;42.004;23.088;2022-12-07T00:31:32;17.70;;;6.47;;
39728;SDS011;25402;42.004;23.088;2022-12-07T00:34:03;12.25;;;7.20;;
39728;SDS011;25402;42.004;23.088;2022-12-07T00:36:31;12.65;;;5.95;;
39728;SDS011;25402;42.004;23.088;2022-12-07T00:38:58;15.10;;;6.13;;
39728;SDS011;25402;42.004;23.088;2022-12-07T00:41:26;18.38;;;6.07;;
39728;SDS011;25402;42.004;23.088;2022-12-07T00:43:54;16.30;;;6.88;;
39728;SDS011;25402;42.004;23.088;2022-12-07T00:46:22;15.25;;;7.00;;
39728;SDS011;25402;42.004;23.088;2022-12-07T00:48:50;13.55;;;6.40;;
39728;SDS011;25402;42.004;23.088;2022-12-07T00:51:19;15.88;;;6.35;;
39728;SDS011;25402;42.004;23.088;2022-12-07T00:53:47;18.15;;;7.28;;
39728;SDS011;25402;42.004;23.088;2022-12-07T00:56:15;22.17;;;11.75;;
39728;SDS011;25402;42.004;23.088;2022-12-07T00:58:44;22.15;;;9.93;;
39728;SDS011;25402;42.004;23.088;2022-12-07T01:01:16;18.90;;;8.52;;
39728;SDS011;25402;42.004;23.088;2022-12-07T01:03:46;12.93;;;7.25;;
39728;SDS011;25402;42.004;23.088;2022-12-07T01:06:15;14.93;;;7.65;;
39728;SDS011;25402;42.004;23.088;2022-12-07T01:08:43;19.38;;;7.05;;
39728;SDS011;25402;42.004;23.088;2022-12-07T01:11:12;23.15;;;7.75;;
39728;SDS011;25402;42.004;23.088;2022-12-07T01:13:41;18.70;;;7.68;;
39728;SDS011;25402;42.004;23.088;2022-12-07T01:16:11;22.50;;;8.85;;
39728;SDS011;25402;42.004;23.088;2022-12-07T01:18:41;18.17;;;7.65;;
39728;SDS011;25402;42.004;23.088;2022-12-07T01:21:11;19.30;;;8.00;;
39728;SDS011;25402;42.004;23.088;2022-12-07T01:23:41;21.55;;;7.78;;
39728;SDS011;25402;42.004;23.088;2022-12-07T01:26:09;20.52;;;8.00;;
39728;SDS011;25402;42.004;23.088;2022-12-07T01:28:38;13.02;;;7.32;;
39728;SDS011;25402;42.004;23.088;2022-12-07T01:31:07;16.45;;;7.60;;
39728;SDS011;25402;42.004;23.088;2022-12-07T01:33:37;14.20;;;7.65;;
39728;SDS011;25402;42.004;23.088;2022-12-07T01:36:06;20.17;;;7.10;;
39728;SDS011;25402;42.004;23.088;2022-12-07T01:38:40;17.02;;;6.97;;
39728;SDS011;25402;42.004;23.088;2022-12-07T01:41:07;11.88;;;5.93;;
39728;SDS011;25402;42.004;23.088;2022-12-07T01:43:35;13.27;;;6.10;;
39728;SDS011;25402;42.004;23.088;2022-12-07T01:46:03;13.00;;;6.47;;
39728;SDS011;25402;42.004;23.088;2022-12-07T01:48:32;12.10;;;5.88;;
39728;SDS011;25402;42.004;23.088;2022-12-07T01:51:03;18.10;;;7.10;;
39728;SDS011;25402;42.004;23.088;2022-12-07T01:53:35;15.85;;;7.20;;
39728;SDS011;25402;42.004;23.088;2022-12-07T01:56:08;21.15;;;7.10;;
39728;SDS011;25402;42.004;23.088;2022-12-07T01:58:42;13.85;;;6.65;;
39728;SDS011;25402;42.004;23.088;2022-12-07T02:01:11;14.10;;;6.70;;
39728;SDS011;25402;42.004;23.088;2022-12-07T02:03:39;16.48;;;6.63;;
39728;SDS011;25402;42.004;23.088;2022-12-07T02:06:08;14.25;;;6.35;;
39728;SDS011;25402;42.004;23.088;2022-12-07T02:08:38;12.73;;;6.85;;
39728;SDS011;25402;42.004;23.088;2022-12-07T02:11:08;11.90;;;6.55;;
39728;SDS011;25402;42.004;23.088;2022-12-07T02:13:37;17.58;;;6.40;;
39728;SDS011;25402;42.004;23.088;2022-12-07T02:16:09;11.98;;;6.07;;
39728;SDS011;25402;42.004;23.088;2022-12-07T02:18:49;13.30;;;6.90;;
39728;SDS011;25402;42.004;23.088;2022-12-07T02:21:33;13.20;;;7.13;;
39728;SDS011;25402;42.004;23.088;2022-12-07T02:24:24;14.23;;;7.07;;
39728;SDS011;25402;42.004;23.088;2022-12-07T02:27:22;10.40;;;6.65;;
39728;SDS011;25402;42.004;23.088;2022-12-07T02:30:04;14.13;;;7.00;;
39728;SDS011;25402;42.004;23.088;2022-12-07T02:32:38;12.27;;;6.53;;
39728;SDS011;25402;42.004;23.088;2022-12-07T02:35:11;20.30;;;7.22;;
39728;SDS011;25402;42.004;23.088;2022-12-07T02:37:47;12.38;;;6.55;;
39728;SDS011;25402;42.004;23.088;2022-12-07T02:40:23;20.83;;;7.50;;
39728;SDS011;25402;42.004;23.088;2022-12-07T02:42:55;14.30;;;6.35;;
39728;SDS011;25402;42.004;23.088;2022-12-07T02:45:30;17.70;;;6.63;;
39728;SDS011;25402;42.004;23.088;2022-12-07T02:48:00;15.88;;;7.47;;
39728;SDS011;25402;42.004;23.088;2022-12-07T02:50:30;16.63;;;6.93;;
39728;SDS011;25402;42.004;23.088;2022-12-07T02:52:58;16.50;;;6.72;;
39728;SDS011;25402;42.004;23.088;2022-12-07T02:55:26;15.35;;;6.95;;
39728;SDS011;25402;42.004;23.088;2022-12-07T02:58:09;14.85;;;6.65;;
39728;SDS011;25402;42.004;23.088;2022-12-07T03:00:50;12.00;;;6.93;;
39728;SDS011;25402;42.004;23.088;2022-12-07T03:03:22;19.63;;;7.07;;
39728;SDS011;25402;42.004;23.088;2022-12-07T03:05:59;13.63;;;7.22;;
39728;SDS011;25402;42.004;23.088;2022-12-07T03:08:39;13.77;;;6.95;;
39728;SDS011;25402;42.004;23.088;2022-12-07T03:11:21;19.25;;;8.23;;
39728;SDS011;25402;42.004;23.088;2022-12-07T03:13:54;24.10;;;9.95;;
39728;SDS011;25402;42.004;23.088;2022-12-07T03:16:33;17.63;;;8.15;;
39728;SDS011;25402;42.004;23.088;2022-12-07T03:19:06;20.48;;;7.50;;
39728;SDS011;25402;42.004;23.088;2022-12-07T03:21:38;18.35;;;8.02;;
39728;SDS011;25402;42.004;23.088;2022-12-07T03:24:21;24.27;;;7.35;;
39728;SDS011;25402;42.004;23.088;2022-12-07T03:26:53;17.92;;;7.78;;
39728;SDS011;25402;42.004;23.088;2022-12-07T03:29:27;19.58;;;8.07;;
39728;SDS011;25402;42.004;23.088;2022-12-07T03:31:59;18.70;;;7.82;;
39728;SDS011;25402;42.004;23.088;2022-12-07T03:34:39;17.67;;;7.10;;
39728;SDS011;25402;42.004;23.088;2022-12-07T03:37:39;18.35;;;7.53;;
39728;SDS011;25402;42.004;23.088;2022-12-07T03:40:13;17.33;;;8.38;;
39728;SDS011;25402;42.004;23.088;2022-12-07T03:42:50;17.30;;;7.25;;
39728;SDS011;25402;42.004;23.088;2022-12-07T03:45:26;18.70;;;7.88;;
39728;SDS011;25402;42.004;23.088;2022-12-07T03:48:07;17.83;;;7.70;;
39728;SDS011;25402;42.004;23.088;2022-12-07T03:50:41;21.42;;;8.05;;
39728;SDS011;25402;42.004;23.088;2022-12-07T03:53:15;15.15;;;7.00;;
39728;SDS011;25402;42.004;23.088;2022-12-07T03:58:19;20.27;;;5.80;;
39728;SDS011;25402;42.004;23.088;2022-12-07T04:00:50;18.60;;;7.00;;
39728;SDS011;25402;42.004;23.088;2022-12-07T04:03:20;14.77;;;6.32;;
39728;SDS011;25402;42.004;23.088;2022-12-07T04:05:47;12.15;;;6.50;;
39728;SDS011;25402;42.004;23.088;2022-12-07T04:08:15;20.45;;;6.88;;
39728;SDS011;25402;42.004;23.088;2022-12-07T04:10:42;22.50;;;7.20;;
39728;SDS011;25402;42.004;23.088;2022-12-07T04:13:10;24.27;;;7.22;;
39728;SDS011;25402;42.004;23.088;2022-12-07T04:15:37;26.05;;;6.30;;
39728;SDS011;25402;42.004;23.088;2022-12-07T04:18:05;18.15;;;6.85;;
39728;SDS011;25402;42.004;23.088;2022-12-07T04:20:34;14.40;;;6.90;;
39728;SDS011;25402;42.004;23.088;2022-12-07T04:23:04;15.68;;;6.82;;
39728;SDS011;25402;42.004;23.088;2022-12-07T04:25:31;21.33;;;7.70;;
39728;SDS011;25402;42.004;23.088;2022-12-07T04:27:59;19.08;;;8.95;;
39728;SDS011;25402;42.004;23.088;2022-12-07T04:30:27;20.90;;;8.75;;
39728;SDS011;25402;42.004;23.088;2022-12-07T04:32:54;18.45;;;8.18;;
39728;SDS011;25402;42.004;23.088;2022-12-07T04:35:22;17.05;;;7.57;;
39728;SDS011;25402;42.004;23.088;2022-12-07T04:38:04;20.52;;;7.45;;
39728;SDS011;25402;42.004;23.088;2022-12-07T04:40:32;21.05;;;7.97;;
39728;SDS011;25402;42.004;23.088;2022-12-07T04:43:09;20.92;;;9.07;;
39728;SDS011;25402;42.004;23.088;2022-12-07T04:45:58;19.63;;;7.03;;
39728;SDS011;25402;42.004;23.088;2022-12-07T04:48:26;24.48;;;6.43;;
39728;SDS011;25402;42.004;23.088;2022-12-07T04:50:57;23.17;;;6.78;;
39728;SDS011;25402;42.004;23.088;2022-12-07T04:53:32;34.80;;;6.50;;
39728;SDS011;25402;42.004;23.088;2022-12-07T04:56:00;21.45;;;7.45;;
39728;SDS011;25402;42.004;23.088;2022-12-07T04:58:29;19.50;;;5.75;;
39728;SDS011;25402;42.004;23.088;2022-12-07T05:01:06;21.55;;;6.00;;
39728;SDS011;25402;42.004;23.088;2022-12-07T05:04:05;14.63;;;7.28;;
39728;SDS011;25402;42.004;23.088;2022-12-07T05:06:36;19.60;;;7.60;;
39728;SDS011;25402;42.004;23.088;2022-12-07T05:09:10;17.90;;;7.13;;
39728;SDS011;25402;42.004;23.088;2022-12-07T05:11:40;15.13;;;8.35;;
39728;SDS011;25402;42.004;23.088;2022-12-07T05:14:10;19.50;;;8.52;;
39728;SDS011;25402;42.004;23.088;2022-12-07T05:16:50;19.00;;;9.15;;
39728;SDS011;25402;42.004;23.088;2022-12-07T05:19:20;18.42;;;9.10;;
39728;SDS011;25402;42.004;23.088;2022-12-07T05:22:03;25.30;;;11.30;;
39728;SDS011;25402;42.004;23.088;2022-12-07T05:24:38;26.13;;;10.20;;
39728;SDS011;25402;42.004;23.088;2022-12-07T05:27:10;21.73;;;8.93;;
39728;SDS011;25402;42.004;23.088;2022-12-07T05:29:43;17.48;;;8.35;;
39728;SDS011;25402;42.004;23.088;2022-12-07T05:32:14;14.25;;;7.80;;
39728;SDS011;25402;42.004;23.088;2022-12-07T05:34:48;18.38;;;8.57;;
39728;SDS011;25402;42.004;23.088;2022-12-07T05:37:21;33.10;;;9.45;;
39728;SDS011;25402;42.004;23.088;2022-12-07T05:39:54;31.38;;;15.15;;
39728;SDS011;25402;42.004;23.088;2022-12-07T05:42:52;47.63;;;14.60;;
39728;SDS011;25402;42.004;23.088;2022-12-07T05:45:25;30.48;;;11.05;;
39728;SDS011;25402;42.004;23.088;2022-12-07T05:48:00;50.93;;;21.07;;
39728;SDS011;25402;42.004;23.088;2022-12-07T05:50:41;37.47;;;15.40;;
39728;SDS011;25402;42.004;23.088;2022-12-07T05:53:11;37.88;;;14.52;;
39728;SDS011;25402;42.004;23.088;2022-12-07T05:55:45;69.82;;;25.27;;
39728;SDS011;25402;42.004;23.088;2022-12-07T05:58:21;98.57;;;30.02;;
39728;SDS011;25402;42.004;23.088;2022-12-07T06:01:08;48.95;;;16.92;;
39728;SDS011;25402;42.004;23.088;2022-12-07T06:04:01;36.58;;;13.35;;
39728;SDS011;25402;42.004;23.088;2022-12-07T06:06:42;72.72;;;24.42;;
39728;SDS011;25402;42.004;23.088;2022-12-07T06:09:22;95.03;;;22.65;;
39728;SDS011;25402;42.004;23.088;2022-12-07T06:14:56;46.22;;;13.43;;
39728;SDS011;25402;42.004;23.088;2022-12-07T06:17:29;32.35;;;10.93;;
39728;SDS011;25402;42.004;23.088;2022-12-07T06:19:57;28.08;;;9.65;;
39728;SDS011;25402;42.004;23.088;2022-12-07T06:22:24;29.88;;;10.10;;
39728;SDS011;25402;42.004;23.088;2022-12-07T06:24:55;39.13;;;15.30;;
39728;SDS011;25402;42.004;23.088;2022-12-07T06:27:24;43.95;;;15.43;;
39728;SDS011;25402;42.004;23.088;2022-12-07T06:29:52;45.42;;;18.75;;
39728;SDS011;25402;42.004;23.088;2022-12-07T06:32:30;49.97;;;20.70;;
39728;SDS011;25402;42.004;23.088;2022-12-07T06:35:01;41.60;;;16.02;;
39728;SDS011;25402;42.004;23.088;2022-12-07T06:37:58;39.05;;;16.23;;
39728;SDS011;25402;42.004;23.088;2022-12-07T06:40:30;45.72;;;20.13;;
39728;SDS011;25402;42.004;23.088;2022-12-07T06:43:02;39.78;;;18.77;;
39728;SDS011;25402;42.004;23.088;2022-12-07T06:45:36;33.75;;;17.65;;
39728;SDS011;25402;42.004;23.088;2022-12-07T06:48:08;44.35;;;15.63;;
39728;SDS011;25402;42.004;23.088;2022-12-07T06:50:52;31.05;;;16.20;;
39728;SDS011;25402;42.004;23.088;2022-12-07T06:53:25;43.60;;;17.92;;
39728;SDS011;25402;42.004;23.088;2022-12-07T06:56:16;37.25;;;12.25;;
39728;SDS011;25402;42.004;23.088;2022-12-07T06:58:45;28.10;;;10.07;;
39728;SDS011;25402;42.004;23.088;2022-12-07T07:01:21;35.90;;;10.32;;
39728;SDS011;25402;42.004;23.088;2022-12-07T07:03:49;25.33;;;10.30;;
39728;SDS011;25402;42.004;23.088;2022-12-07T07:06:17;59.33;;;25.48;;
39728;SDS011;25402;42.004;23.088;2022-12-07T07:08:50;58.50;;;27.95;;
39728;SDS011;25402;42.004;23.088;2022-12-07T07:11:33;50.42;;;21.70;;
39728;SDS011;25402;42.004;23.088;2022-12-07T07:14:02;35.20;;;14.70;;
39728;SDS011;25402;42.004;23.088;2022-12-07T07:16:29;29.60;;;13.75;;
39728;SDS011;25402;42.004;23.088;2022-12-07T07:18:59;44.60;;;13.15;;
39728;SDS011;25402;42.004;23.088;2022-12-07T07:21:27;32.97;;;13.15;;
39728;SDS011;25402;42.004;23.088;2022-12-07T07:23:58;36.42;;;12.73;;
39728;SDS011;25402;42.004;23.088;2022-12-07T07:26:29;25.38;;;10.43;;
39728;SDS011;25402;42.004;23.088;2022-12-07T07:28:57;20.90;;;11.70;;
39728;SDS011;25402;42.004;23.088;2022-12-07T07:31:30;35.47;;;15.02;;
39728;SDS011;25402;42.004;23.088;2022-12-07T07:34:03;38.70;;;13.25;;
39728;SDS011;25402;42.004;23.088;2022-12-07T07:36:56;29.10;;;13.13;;
39728;SDS011;25402;42.004;23.088;2022-12-07T07:39:33;42.95;;;19.65;;
39728;SDS011;25402;42.004;23.088;2022-12-07T07:42:04;82.15;;;20.35;;
39728;SDS011;25402;42.004;23.088;2022-12-07T07:44:34;27.80;;;10.23;;
39728;SDS011;25402;42.004;23.088;2022-12-07T07:47:03;14.57;;;6.72;;
39728;SDS011;25402;42.004;23.088;2022-12-07T07:49:38;17.17;;;6.20;;
39728;SDS011;25402;42.004;23.088;2022-12-07T07:52:14;16.80;;;6.40;;
39728;SDS011;25402;42.004;23.088;2022-12-07T07:54:47;14.90;;;5.63;;
39728;SDS011;25402;42.004;23.088;2022-12-07T07:57:38;12.90;;;5.43;;
39728;SDS011;25402;42.004;23.088;2022-12-07T08:00:13;9.07;;;5.43;;
39728;SDS011;25402;42.004;23.088;2022-12-07T08:03:00;13.35;;;5.20;;
39728;SDS011;25402;42.004;23.088;2022-12-07T08:05:49;10.70;;;5.53;;
39728;SDS011;25402;42.004;23.088;2022-12-07T08:08:25;17.20;;;7.05;;
39728;SDS011;25402;42.004;23.088;2022-12-07T08:14:09;9.95;;;5.75;;
39728;SDS011;25402;42.004;23.088;2022-12-07T08:16:55;19.88;;;8.23;;
39728;SDS011;25402;42.004;23.088;2022-12-07T08:19:41;17.52;;;7.60;;
39728;SDS011;25402;42.004;23.088;2022-12-07T08:22:08;12.55;;;6.03;;
39728;SDS011;25402;42.004;23.088;2022-12-07T08:24:37;14.35;;;5.90;;
39728;SDS011;25402;42.004;23.088;2022-12-07T08:27:04;16.27;;;5.18;;
39728;SDS011;25402;42.004;23.088;2022-12-07T08:29:32;11.10;;;6.40;;
39728;SDS011;25402;42.004;23.088;2022-12-07T08:31:59;12.93;;;5.80;;
39728;SDS011;25402;42.004;23.088;2022-12-07T08:34:31;11.18;;;5.97;;
39728;SDS011;25402;42.004;23.088;2022-12-07T08:37:03;34.45;;;6.70;;
39728;SDS011;25402;42.004;23.088;2022-12-07T08:39:35;66.18;;;8.32;;
39728;SDS011;25402;42.004;23.088;2022-12-07T08:42:29;56.50;;;7.20;;
39728;SDS011;25402;42.004;23.088;2022-12-07T08:45:06;48.30;;;7.15;;
39728;SDS011;25402;42.004;23.088;2022-12-07T08:47:39;44.60;;;7.45;;
39728;SDS011;25402;42.004;23.088;2022-12-07T08:50:18;67.93;;;8.93;;
39728;SDS011;25402;42.004;23.088;2022-12-07T08:53:04;27.92;;;7.13;;
39728;SDS011;25402;42.004;23.088;2022-12-07T08:55:37;12.18;;;6.22;;
39728;SDS011;25402;42.004;23.088;2022-12-07T08:58:09;38.05;;;7.22;;
39728;SDS011;25402;42.004;23.088;2022-12-07T09:00:43;24.95;;;6.35;;
39728;SDS011;25402;42.004;23.088;2022-12-07T09:03:12;25.20;;;6.32;;
39728;SDS011;25402;42.004;23.088;2022-12-07T09:05:42;19.75;;;6.40;;
39728;SDS011;25402;42.004;23.088;2022-12-07T09:08:11;20.52;;;6.63;;
39728;SDS011;25402;42.004;23.088;2022-12-07T09:10:42;16.80;;;6.95;;
39728;SDS011;25402;42.004;23.088;2022-12-07T09:13:10;12.00;;;5.95;;
39728;SDS011;25402;42.004;23.088;2022-12-07T09:15:38;7.72;;;5.35;;
39728;SDS011;25402;42.004;23.088;2022-12-07T09:18:13;12.88;;;6.28;;
39728;SDS011;25402;42.004;23.088;2022-12-07T09:20:49;12.25;;;6.22;;
39728;SDS011;25402;42.004;23.088;2022-12-07T09:23:21;16.50;;;6.65;;
39728;SDS011;25402;42.004;23.088;2022-12-07T09:26:04;15.68;;;5.35;;
39728;SDS011;25402;42.004;23.088;2022-12-07T09:28:56;15.23;;;4.93;;
39728;SDS011;25402;42.004;23.088;2022-12-07T09:31:23;11.93;;;4.80;;
39728;SDS011;25402;42.004;23.088;2022-12-07T09:33:53;11.60;;;4.57;;
39728;SDS011;25402;42.004;23.088;2022-12-07T09:36:23;14.55;;;4.90;;
39728;SDS011;25402;42.004;23.088;2022-12-07T09:39:02;13.27;;;5.32;;
39728;SDS011;25402;42.004;23.088;2022-12-07T09:41:31;16.20;;;5.30;;
39728;SDS011;25402;42.004;23.088;2022-12-07T09:44:23;8.73;;;4.57;;
39728;SDS011;25402;42.004;23.088;2022-12-07T09:47:08;6.43;;;4.47;;
39728;SDS011;25402;42.004;23.088;2022-12-07T09:49:39;7.70;;;4.40;;
39728;SDS011;25402;42.004;23.088;2022-12-07T09:52:17;8.55;;;4.50;;
39728;SDS011;25402;42.004;23.088;2022-12-07T09:58:13;9.10;;;4.20;;
39728;SDS011;25402;42.004;23.088;2022-12-07T10:00:47;13.05;;;4.88;;
39728;SDS011;25402;42.004;23.088;2022-12-07T10:03:21;10.63;;;4.65;;
39728;SDS011;25402;42.004;23.088;2022-12-07T10:06:04;15.32;;;4.07;;
39728;SDS011;25402;42.004;23.088;2022-12-07T10:08:44;12.68;;;4.47;;
39728;SDS011;25402;42.004;23.088;2022-12-07T10:11:23;12.23;;;5.07;;
39728;SDS011;25402;42.004;23.088;2022-12-07T10:13:55;7.65;;;4.35;;
39728;SDS011;25402;42.004;23.088;2022-12-07T10:16:39;6.95;;;4.53;;
39728;SDS011;25402;42.004;23.088;2022-12-07T10:19:24;8.50;;;4.70;;
39728;SDS011;25402;42.004;23.088;2022-12-07T10:22:02;13.45;;;5.00;;
39728;SDS011;25402;42.004;23.088;2022-12-07T10:24:34;9.10;;;3.97;;
39728;SDS011;25402;42.004;23.088;2022-12-07T10:27:18;8.60;;;4.20;;
39728;SDS011;25402;42.004;23.088;2022-12-07T10:29:54;14.05;;;5.05;;
39728;SDS011;25402;42.004;23.088;2022-12-07T10:32:28;13.90;;;5.18;;
39728;SDS011;25402;42.004;23.088;2022-12-07T10:35:19;9.35;;;4.88;;
39728;SDS011;25402;42.004;23.088;2022-12-07T10:37:51;13.05;;;4.60;;
39728;SDS011;25402;42.004;23.088;2022-12-07T10:40:38;12.80;;;4.80;;
39728;SDS011;25402;42.004;23.088;2022-12-07T10:43:21;10.07;;;5.15;;
39728;SDS011;25402;42.004;23.088;2022-12-07T10:48:58;10.82;;;4.35;;
39728;SDS011;25402;42.004;23.088;2022-12-07T10:51:33;12.10;;;4.68;;
39728;SDS011;25402;42.004;23.088;2022-12-07T10:54:09;13.27;;;3.45;;
39728;SDS011;25402;42.004;23.088;2022-12-07T10:59:54;10.43;;;4.25;;
39728;SDS011;25402;42.004;23.088;2022-12-07T11:02:34;11.00;;;4.20;;
39728;SDS011;25402;42.004;23.088;2022-12-07T11:05:16;9.98;;;4.25;;
39728;SDS011;25402;42.004;23.088;2022-12-07T11:07:54;12.45;;;4.43;;
39728;SDS011;25402;42.004;23.088;2022-12-07T11:10:30;11.05;;;4.10;;
39728;SDS011;25402;42.004;23.088;2022-12-07T11:13:16;16.13;;;3.95;;
39728;SDS011;25402;42.004;23.088;2022-12-07T11:15:57;9.27;;;4.47;;
39728;SDS011;25402;42.004;23.088;2022-12-07T11:18:45;8.45;;;4.35;;
39728;SDS011;25402;42.004;23.088;2022-12-07T11:21:23;10.27;;;4.95;;
39728;SDS011;25402;42.004;23.088;2022-12-07T11:24:00;11.20;;;4.45;;
39728;SDS011;25402;42.004;23.088;2022-12-07T11:26:56;13.60;;;5.35;;
39728;SDS011;25402;42.004;23.088;2022-12-07T11:29:40;10.82;;;3.90;;
39728;SDS011;25402;42.004;23.088;2022-12-07T11:32:21;7.20;;;4.63;;
39728;SDS011;25402;42.004;23.088;2022-12-07T11:35:00;9.30;;;4.55;;
39728;SDS011;25402;42.004;23.088;2022-12-07T11:37:39;13.30;;;4.97;;
39728;SDS011;25402;42.004;23.088;2022-12-07T11:40:17;13.57;;;4.97;;
39728;SDS011;25402;42.004;23.088;2022-12-07T11:42:55;8.75;;;4.30;;
39728;SDS011;25402;42.004;23.088;2022-12-07T11:45:26;13.15;;;5.20;;
39728;SDS011;25402;42.004;23.088;2022-12-07T11:48:01;13.60;;;4.53;;
39728;SDS011;25402;42.004;23.088;2022-12-07T11:50:33;12.63;;;4.85;;
39728;SDS011;25402;42.004;23.088;2022-12-07T11:53:10;7.90;;;4.80;;
39728;SDS011;25402;42.004;23.088;2022-12-07T11:55:45;10.88;;;4.70;;
39728;SDS011;25402;42.004;23.088;2022-12-07T11:58:20;9.15;;;4.60;;
39728;SDS011;25402;42.004;23.088;2022-12-07T12:01:06;18.33;;;4.88;;
39728;SDS011;25402;42.004;23.088;2022-12-07T12:03:45;11.13;;;4.38;;
39728;SDS011;25402;42.004;23.088;2022-12-07T12:06:14;13.93;;;5.22;;
39728;SDS011;25402;42.004;23.088;2022-12-07T12:08:53;14.68;;;5.10;;
39728;SDS011;25402;42.004;23.088;2022-12-07T12:11:31;12.00;;;4.95;;
39728;SDS011;25402;42.004;23.088;2022-12-07T12:20:21;12.05;;;4.53;;
39728;SDS011;25402;42.004;23.088;2022-12-07T12:22:59;13.88;;;4.70;;
39728;SDS011;25402;42.004;23.088;2022-12-07T12:25:36;7.70;;;4.32;;
39728;SDS011;25402;42.004;23.088;2022-12-07T12:28:15;13.00;;;4.35;;
39728;SDS011;25402;42.004;23.088;2022-12-07T12:33:35;10.13;;;4.00;;
39728;SDS011;25402;42.004;23.088;2022-12-07T12:36:25;12.82;;;4.50;;
39728;SDS011;25402;42.004;23.088;2022-12-07T12:41:53;10.00;;;4.80;;
39728;SDS011;25402;42.004;23.088;2022-12-07T12:50:59;6.00;;;4.35;;
39728;SDS011;25402;42.004;23.088;2022-12-07T12:54:10;7.32;;;4.03;;
39728;SDS011;25402;42.004;23.088;2022-12-07T12:56:42;5.78;;;3.80;;
39728;SDS011;25402;42.004;23.088;2022-12-07T12:59:22;8.55;;;4.63;;
39728;SDS011;25402;42.004;23.088;2022-12-07T13:02:09;10.63;;;4.68;;
39728;SDS011;25402;42.004;23.088;2022-12-07T13:10:49;15.95;;;8.75;;
39728;SDS011;25402;42.004;23.088;2022-12-07T13:13:30;19.08;;;9.65;;
39728;SDS011;25402;42.004;23.088;2022-12-07T13:22:41;8.93;;;4.57;;
39728;SDS011;25402;42.004;23.088;2022-12-07T13:25:20;19.15;;;4.97;;
39728;SDS011;25402;42.004;23.088;2022-12-07T13:27:59;12.40;;;5.25;;
39728;SDS011;25402;42.004;23.088;2022-12-07T13:32:58;12.48;;;4.95;;
39728;SDS011;25402;42.004;23.088;2022-12-07T13:35:28;9.45;;;4.20;;
39728;SDS011;25402;42.004;23.088;2022-12-07T13:38:01;8.30;;;4.43;;
39728;SDS011;25402;42.004;23.088;2022-12-07T13:40:34;10.27;;;5.15;;
39728;SDS011;25402;42.004;23.088;2022-12-07T13:43:12;12.98;;;4.97;;
39728;SDS011;25402;42.004;23.088;2022-12-07T13:45:42;10.57;;;4.90;;
39728;SDS011;25402;42.004;23.088;2022-12-07T13:48:19;12.95;;;5.35;;
39728;SDS011;25402;42.004;23.088;2022-12-07T13:50:55;11.13;;;5.22;;
39728;SDS011;25402;42.004;23.088;2022-12-07T13:53:23;11.02;;;5.55;;
39728;SDS011;25402;42.004;23.088;2022-12-07T13:55:54;11.35;;;4.95;;
39728;SDS011;25402;42.004;23.088;2022-12-07T13:58:24;17.35;;;5.55;;
39728;SDS011;25402;42.004;23.088;2022-12-07T14:00:53;15.98;;;5.25;;
39728;SDS011;25402;42.004;23.088;2022-12-07T14:03:28;9.23;;;5.28;;
39728;SDS011;25402;42.004;23.088;2022-12-07T14:06:06;14.75;;;5.70;;
39728;SDS011;25402;42.004;23.088;2022-12-07T14:08:44;11.25;;;6.00;;
39728;SDS011;25402;42.004;23.088;2022-12-07T14:11:27;11.82;;;5.70;;
39728;SDS011;25402;42.004;23.088;2022-12-07T14:13:57;12.80;;;5.63;;
39728;SDS011;25402;42.004;23.088;2022-12-07T14:16:27;22.23;;;5.20;;
39728;SDS011;25402;42.004;23.088;2022-12-07T14:18:57;12.23;;;5.45;;
39728;SDS011;25402;42.004;23.088;2022-12-07T14:21:25;13.32;;;5.30;;
39728;SDS011;25402;42.004;23.088;2022-12-07T14:26:51;12.57;;;5.90;;
39728;SDS011;25402;42.004;23.088;2022-12-07T14:29:19;11.52;;;6.03;;
39728;SDS011;25402;42.004;23.088;2022-12-07T14:31:48;13.25;;;5.70;;
39728;SDS011;25402;42.004;23.088;2022-12-07T14:34:19;14.57;;;5.95;;
39728;SDS011;25402;42.004;23.088;2022-12-07T14:36:49;13.30;;;5.88;;
39728;SDS011;25402;42.004;23.088;2022-12-07T14:39:16;10.98;;;6.07;;
39728;SDS011;25402;42.004;23.088;2022-12-07T14:41:49;11.30;;;6.35;;
39728;SDS011;25402;42.004;23.088;2022-12-07T14:44:18;11.80;;;5.95;;
39728;SDS011;25402;42.004;23.088;2022-12-07T14:46:47;14.63;;;7.00;;
39728;SDS011;25402;42.004;23.088;2022-12-07T14:49:15;14.75;;;6.63;;
39728;SDS011;25402;42.004;23.088;2022-12-07T14:51:44;12.10;;;6.80;;
39728;SDS011;25402;42.004;23.088;2022-12-07T14:54:14;15.88;;;6.90;;
39728;SDS011;25402;42.004;23.088;2022-12-07T14:56:47;13.30;;;6.18;;
39728;SDS011;25402;42.004;23.088;2022-12-07T14:59:22;18.88;;;7.80;;
39728;SDS011;25402;42.004;23.088;2022-12-07T15:01:50;13.63;;;6.63;;
39728;SDS011;25402;42.004;23.088;2022-12-07T15:04:22;16.25;;;6.60;;
39728;SDS011;25402;42.004;23.088;2022-12-07T15:06:55;21.63;;;6.45;;
39728;SDS011;25402;42.004;23.088;2022-12-07T15:09:23;10.07;;;6.43;;
39728;SDS011;25402;42.004;23.088;2022-12-07T15:11:51;12.13;;;6.72;;
39728;SDS011;25402;42.004;23.088;2022-12-07T15:14:18;16.25;;;7.13;;
39728;SDS011;25402;42.004;23.088;2022-12-07T15:16:49;12.13;;;6.05;;
39728;SDS011;25402;42.004;23.088;2022-12-07T15:19:18;16.85;;;6.97;;
39728;SDS011;25402;42.004;23.088;2022-12-07T15:21:49;13.80;;;6.60;;
39728;SDS011;25402;42.004;23.088;2022-12-07T15:24:17;13.65;;;6.07;;
39728;SDS011;25402;42.004;23.088;2022-12-07T15:26:45;11.70;;;6.40;;
39728;SDS011;25402;42.004;23.088;2022-12-07T15:29:12;13.15;;;6.32;;
39728;SDS011;25402;42.004;23.088;2022-12-07T15:31:41;19.17;;;6.90;;
39728;SDS011;25402;42.004;23.088;2022-12-07T15:34:12;12.77;;;6.97;;
39728;SDS011;25402;42.004;23.088;2022-12-07T15:36:39;24.35;;;9.23;;
39728;SDS011;25402;42.004;23.088;2022-12-07T15:39:06;15.50;;;7.53;;
39728;SDS011;25402;42.004;23.088;2022-12-07T15:41:34;20.50;;;8.63;;
39728;SDS011;25402;42.004;23.088;2022-12-07T15:44:02;29.23;;;8.85;;
39728;SDS011;25402;42.004;23.088;2022-12-07T15:46:46;18.13;;;9.95;;
39728;SDS011;25402;42.004;23.088;2022-12-07T15:49:16;25.95;;;9.48;;
39728;SDS011;25402;42.004;23.088;2022-12-07T15:51:44;18.30;;;8.45;;
39728;SDS011;25402;42.004;23.088;2022-12-07T15:54:13;18.17;;;8.98;;
39728;SDS011;25402;42.004;23.088;2022-12-07T15:56:46;23.05;;;8.88;;